createdAt,value
2022-11-11T00:04:23.445Z,21.65
2022-11-11T00:09:24.699Z,14.57
2022-11-11T00:14:25.913Z,16.00
2022-11-11T00:19:45.829Z,14.43
2022-11-11T00:25:05.586Z,15.43
2022-11-11T00:30:07.232Z,14.93
2022-11-11T00:35:27.338Z,12.60
2022-11-11T00:40:28.623Z,17.02
2022-11-11T00:45:34.875Z,16.33
2022-11-11T00:50:54.876Z,16.08
2022-11-11T00:55:56.795Z,14.18
2022-11-11T01:00:58.340Z,13.30
2022-11-11T01:06:02.697Z,11.20
2022-11-11T01:11:03.982Z,12.23
2022-11-11T01:16:06.590Z,17.58
2022-11-11T01:21:11.044Z,12.30
2022-11-11T01:26:12.557Z,14.23
2022-11-11T01:31:14.679Z,13.73
2022-11-11T01:36:17.970Z,12.73
2022-11-11T01:41:33.615Z,14.00
2022-11-11T01:46:43.846Z,14.00
2022-11-11T01:52:03.693Z,11.18
2022-11-11T01:57:08.658Z,13.05
2022-11-11T02:02:17.267Z,11.57
2022-11-11T02:07:19.018Z,12.35
2022-11-11T02:12:39.005Z,14.82
2022-11-11T02:17:40.374Z,9.57
2022-11-11T02:22:49.945Z,10.82
2022-11-11T02:27:52.384Z,10.97
2022-11-11T02:32:54.211Z,11.80
2022-11-11T02:37:55.685Z,11.18
2022-11-11T02:42:57.008Z,9.68
2022-11-11T02:47:58.415Z,12.50
2022-11-11T02:52:59.904Z,9.60
2022-11-11T02:58:01.241Z,9.75
2022-11-11T03:03:02.578Z,11.70
2022-11-11T03:08:04.418Z,11.18
2022-11-11T03:13:05.947Z,13.05
2022-11-11T03:18:07.232Z,9.97
2022-11-11T03:23:12.627Z,12.68
2022-11-11T03:28:21.140Z,9.70
2022-11-11T03:33:22.699Z,11.32
2022-11-11T03:38:24.522Z,9.15
2022-11-11T03:43:27.411Z,12.73
2022-11-11T03:48:30.057Z,11.38
2022-11-11T03:53:31.482Z,10.52
2022-11-11T03:58:32.701Z,11.48
2022-11-11T04:03:52.549Z,15.88
2022-11-11T04:09:12.353Z,13.20
2022-11-11T04:14:33.055Z,14.13
2022-11-11T04:19:52.941Z,9.73
2022-11-11T04:25:12.805Z,10.00
2022-11-11T04:30:14.175Z,10.20
2022-11-11T04:35:15.464Z,9.57
2022-11-11T04:40:35.690Z,10.38
2022-11-11T04:45:38.844Z,11.68
2022-11-11T04:50:41.586Z,12.38
2022-11-11T04:56:01.728Z,10.25
2022-11-11T05:01:03.034Z,9.00
2022-11-11T05:06:22.856Z,10.48
2022-11-11T05:11:31.345Z,6.90
2022-11-11T05:16:53.030Z,14.57
2022-11-11T05:21:56.673Z,9.85
2022-11-11T05:26:57.904Z,12.17
2022-11-11T05:31:59.145Z,9.40
2022-11-11T05:37:00.378Z,9.48
2022-11-11T05:42:01.620Z,7.85
2022-11-11T05:47:02.929Z,15.57
2022-11-11T05:52:04.952Z,11.30
2022-11-11T05:57:06.191Z,11.18
2022-11-11T06:02:07.448Z,10.00
2022-11-11T06:07:08.843Z,13.65
2022-11-11T06:12:10.141Z,12.05
2022-11-11T06:17:11.361Z,15.30
2022-11-11T06:22:12.591Z,12.23
2022-11-11T06:27:13.818Z,9.95
2022-11-11T06:32:15.036Z,38.92
2022-11-11T06:37:16.280Z,15.70
2022-11-11T06:42:17.513Z,12.87
2022-11-11T06:47:18.718Z,9.98
2022-11-11T06:52:20.020Z,8.75
2022-11-11T06:57:24.399Z,31.55
2022-11-11T07:02:25.786Z,9.00
2022-11-11T07:07:27.122Z,13.00
2022-11-11T07:12:28.422Z,9.88
2022-11-11T07:17:29.644Z,10.57
2022-11-11T07:22:35.490Z,10.93
2022-11-11T07:27:39.596Z,10.93
2022-11-11T07:32:47.652Z,11.43
2022-11-11T07:37:48.915Z,15.88
2022-11-11T07:42:50.147Z,12.23
2022-11-11T07:47:51.443Z,16.95
2022-11-11T07:52:52.664Z,16.83
2022-11-11T07:57:54.177Z,11.70
2022-11-11T08:02:58.649Z,15.15
2022-11-11T08:08:05.075Z,14.68
2022-11-11T08:13:25.154Z,12.77
2022-11-11T08:18:27.015Z,22.20
2022-11-11T08:24:22.688Z,12.57
2022-11-11T08:28:56.306Z,11.15
2022-11-11T08:33:57.559Z,12.32
2022-11-11T08:38:58.840Z,13.97
2022-11-11T08:44:00.768Z,12.35
2022-11-11T08:49:01.991Z,21.57
2022-11-11T08:54:03.342Z,15.02
2022-11-11T08:59:12.166Z,11.18
2022-11-11T09:09:35.132Z,21.23
2022-11-11T09:14:36.475Z,12.50
2022-11-11T09:19:37.746Z,9.77
2022-11-11T09:24:38.988Z,10.32
2022-11-11T09:29:40.233Z,11.63
2022-11-11T09:34:41.602Z,9.77
2022-11-11T09:39:42.864Z,10.87
2022-11-11T09:45:04.013Z,11.88
2022-11-11T09:50:12.649Z,23.42
2022-11-11T09:55:17.033Z,14.83
2022-11-11T10:00:23.058Z,10.45
2022-11-11T10:05:31.043Z,10.57
2022-11-11T10:10:33.337Z,12.90
2022-11-11T10:15:41.288Z,16.33
2022-11-11T10:20:45.468Z,25.73
2022-11-11T10:25:52.989Z,12.38
2022-11-11T10:30:55.411Z,11.20
2022-11-11T10:35:57.811Z,14.33
2022-11-11T10:41:03.891Z,9.65
2022-11-11T10:46:10.112Z,11.00
2022-11-11T10:51:12.542Z,12.57
2022-11-11T10:56:17.246Z,9.40
2022-11-11T11:01:21.825Z,21.00
2022-11-11T11:06:30.987Z,9.35
2022-11-11T11:11:41.767Z,12.57
2022-11-11T11:16:47.883Z,11.52
2022-11-11T11:21:53.557Z,8.20
2022-11-11T11:26:55.868Z,11.77
2022-11-11T11:32:10.513Z,9.10
2022-11-11T11:37:11.991Z,7.77
2022-11-11T11:42:29.108Z,7.40
2022-11-11T11:47:33.395Z,16.55
2022-11-11T11:52:47.578Z,10.27
2022-11-11T11:57:57.770Z,10.90
2022-11-11T12:03:01.767Z,11.02
2022-11-11T12:08:09.874Z,10.43
2022-11-11T12:13:29.237Z,18.27
2022-11-11T12:18:43.707Z,15.20
2022-11-11T12:23:59.114Z,11.93
2022-11-11T12:29:09.630Z,11.52
2022-11-11T12:34:10.850Z,27.20
2022-11-11T12:39:26.289Z,11.30
2022-11-11T12:44:40.023Z,10.57
2022-11-11T12:50:03.881Z,11.10
2022-11-11T12:55:07.930Z,9.07
2022-11-11T13:00:12.402Z,9.68
2022-11-11T13:05:16.701Z,10.57
2022-11-11T13:10:18.023Z,15.75
2022-11-11T13:15:23.647Z,14.20
2022-11-11T13:20:46.331Z,11.00
2022-11-11T13:25:52.421Z,10.57
2022-11-11T13:30:55.281Z,10.23
2022-11-11T13:35:57.825Z,10.32
2022-11-11T13:41:01.011Z,12.35
2022-11-11T13:46:04.233Z,13.50
2022-11-11T13:51:13.964Z,18.52
2022-11-11T13:56:24.181Z,18.98
2022-11-11T14:01:36.083Z,14.53
2022-11-11T14:06:50.840Z,18.02
2022-11-11T14:12:12.103Z,21.60
2022-11-11T14:17:14.485Z,22.55
2022-11-11T14:22:31.071Z,16.13
2022-11-11T14:27:33.359Z,16.40
2022-11-11T14:32:34.573Z,24.33
2022-11-11T14:37:52.863Z,17.48
2022-11-11T14:42:54.389Z,19.30
2022-11-11T14:47:56.464Z,19.73
2022-11-11T14:53:16.969Z,19.73
2022-11-11T14:58:24.093Z,25.60
2022-11-11T15:03:33.830Z,19.95
2022-11-11T15:08:53.527Z,23.43
2022-11-11T15:13:58.048Z,19.63
2022-11-11T15:19:06.463Z,23.23
2022-11-11T15:24:26.362Z,27.93
2022-11-11T15:29:27.661Z,22.88
2022-11-11T15:34:41.669Z,47.90
2022-11-11T15:39:47.864Z,29.05
2022-11-11T15:44:49.154Z,29.75
2022-11-11T15:49:50.854Z,43.23
2022-11-11T15:54:53.276Z,28.17
2022-11-11T15:59:55.501Z,40.53
2022-11-11T16:05:01.219Z,31.02
2022-11-11T16:10:25.875Z,30.65
2022-11-11T16:15:39.073Z,34.60
2022-11-11T16:20:43.205Z,49.75
2022-11-11T16:25:48.296Z,30.47
2022-11-11T16:30:52.071Z,38.42
2022-11-11T16:35:53.436Z,36.22
2022-11-11T16:40:54.720Z,36.93
2022-11-11T16:46:03.489Z,46.08
2022-11-11T16:51:06.497Z,39.80
2022-11-11T16:56:13.476Z,101.63
2022-11-11T17:01:15.580Z,44.97
2022-11-11T17:06:16.865Z,60.70
2022-11-11T17:11:36.960Z,62.78
2022-11-11T17:16:38.231Z,94.90
2022-11-11T17:21:39.543Z,81.72
2022-11-11T17:26:41.643Z,52.40
2022-11-11T17:31:42.941Z,110.20
2022-11-11T17:36:44.216Z,54.47
2022-11-11T17:41:45.619Z,37.67
2022-11-11T17:46:46.870Z,33.67
2022-11-11T17:51:48.256Z,61.78
2022-11-11T17:56:51.072Z,81.50
2022-11-11T18:01:52.557Z,55.92
2022-11-11T18:06:53.875Z,33.70
2022-11-11T18:11:55.778Z,32.15
2022-11-11T18:16:57.020Z,34.25
2022-11-11T18:21:58.742Z,50.90
2022-11-11T18:27:00.000Z,63.25
2022-11-11T18:32:01.406Z,59.40
2022-11-11T18:37:03.101Z,61.85
2022-11-11T18:42:04.426Z,117.55
2022-11-11T18:47:05.692Z,69.03
2022-11-11T18:52:06.950Z,75.63
2022-11-11T18:57:08.322Z,70.07
2022-11-11T19:02:09.648Z,88.72
2022-11-11T19:07:11.018Z,44.95
2022-11-11T19:12:12.293Z,28.97
2022-11-11T19:17:13.583Z,47.00
2022-11-11T19:22:15.607Z,29.57
2022-11-11T19:27:16.852Z,37.85
2022-11-11T19:32:18.151Z,45.00
2022-11-11T19:37:22.858Z,76.23
2022-11-11T19:42:24.085Z,43.30
2022-11-11T19:47:25.371Z,31.10
2022-11-11T19:52:26.627Z,76.45
2022-11-11T19:57:27.862Z,68.07
2022-11-11T20:02:29.094Z,35.77
2022-11-11T20:07:30.489Z,47.38
2022-11-11T20:12:31.744Z,50.37
2022-11-11T20:17:33.021Z,35.13
2022-11-11T20:22:34.309Z,39.50
2022-11-11T20:27:36.203Z,38.87
2022-11-11T20:32:37.521Z,50.70
2022-11-11T20:37:38.770Z,65.43
2022-11-11T20:42:40.044Z,94.80
2022-11-11T20:47:41.839Z,42.45
2022-11-11T20:52:43.105Z,45.63
2022-11-11T20:57:44.403Z,39.90
2022-11-11T21:02:45.716Z,26.43
2022-11-11T21:07:50.004Z,26.25
2022-11-11T21:12:51.269Z,21.38
2022-11-11T21:17:52.567Z,32.57
2022-11-11T21:22:53.878Z,28.33
2022-11-11T21:27:55.144Z,27.40
2022-11-11T21:32:56.404Z,24.23
2022-11-11T21:37:57.699Z,19.38
2022-11-11T21:42:58.942Z,19.53
2022-11-11T21:48:00.181Z,15.95
2022-11-11T21:53:01.453Z,17.13
2022-11-11T21:58:03.023Z,21.80
2022-11-11T22:03:04.280Z,16.20
2022-11-11T22:08:05.570Z,20.27
2022-11-11T22:13:06.830Z,18.95
2022-11-11T22:18:08.088Z,23.37
2022-11-11T22:23:09.329Z,67.10
2022-11-11T22:28:10.559Z,37.28
2022-11-11T22:33:11.797Z,18.97
2022-11-11T22:38:13.021Z,20.25
2022-11-11T22:43:15.001Z,17.37
2022-11-11T22:48:16.269Z,18.50
2022-11-11T22:53:17.556Z,21.40
2022-11-11T22:58:18.794Z,15.27
2022-11-11T23:03:20.010Z,16.67
2022-11-11T23:08:21.262Z,17.80
2022-11-11T23:13:23.397Z,14.13
2022-11-11T23:18:24.999Z,11.25
2022-11-11T23:23:26.957Z,27.70
2022-11-11T23:28:28.610Z,16.17
2022-11-11T23:33:30.995Z,33.73
2022-11-11T23:38:32.563Z,15.50
2022-11-11T23:43:33.857Z,9.55
2022-11-11T23:48:35.680Z,9.03
2022-11-11T23:53:37.077Z,8.70
2022-11-11T23:58:38.320Z,8.47
